sensor_id;sensor_type;location;lat;lon;timestamp;pressure;altitude;pressure_sealevel;temperature;humidity
51147;BME280;37207;53.060;18.726;2022-08-19T00:01:53;100289.80;;;22.41;70.71
51147;BME280;37207;53.060;18.726;2022-08-19T00:04:23;100296.95;;;22.39;70.81
51147;BME280;37207;53.060;18.726;2022-08-19T00:06:51;100291.14;;;22.38;70.86
51147;BME280;37207;53.060;18.726;2022-08-19T00:09:20;100284.41;;;22.36;70.91
51147;BME280;37207;53.060;18.726;2022-08-19T00:11:51;100279.02;;;22.34;70.97
51147;BME280;37207;53.060;18.726;2022-08-19T00:14:18;100277.80;;;22.31;70.98
51147;BME280;37207;53.060;18.726;2022-08-19T00:16:49;100281.05;;;22.26;71.15
51147;BME280;37207;53.060;18.726;2022-08-19T00:19:21;100287.86;;;22.23;71.16
51147;BME280;37207;53.060;18.726;2022-08-19T00:21:50;100284.35;;;22.20;71.21
51147;BME280;37207;53.060;18.726;2022-08-19T00:24:19;100288.90;;;22.19;71.18
51147;BME280;37207;53.060;18.726;2022-08-19T00:26:46;100288.45;;;22.19;71.33
51147;BME280;37207;53.060;18.726;2022-08-19T00:29:16;100295.27;;;22.18;71.48
51147;BME280;37207;53.060;18.726;2022-08-19T00:31:45;100292.91;;;22.18;71.55
51147;BME280;37207;53.060;18.726;2022-08-19T00:34:14;100292.61;;;22.18;71.60
51147;BME280;37207;53.060;18.726;2022-08-19T00:36:45;100289.84;;;22.18;71.56
51147;BME280;37207;53.060;18.726;2022-08-19T00:39:14;100287.52;;;22.19;71.70
51147;BME280;37207;53.060;18.726;2022-08-19T00:41:45;100292.02;;;22.18;71.64
51147;BME280;37207;53.060;18.726;2022-08-19T00:44:22;100287.64;;;22.16;71.70
51147;BME280;37207;53.060;18.726;2022-08-19T00:46:51;100286.08;;;22.14;71.65
51147;BME280;37207;53.060;18.726;2022-08-19T00:49:27;100284.33;;;22.10;71.75
51147;BME280;37207;53.060;18.726;2022-08-19T00:52:21;100277.93;;;22.08;71.87
51147;BME280;37207;53.060;18.726;2022-08-19T00:54:50;100278.14;;;22.07;71.95
51147;BME280;37207;53.060;18.726;2022-08-19T00:57:24;100280.69;;;22.05;72.07
51147;BME280;37207;53.060;18.726;2022-08-19T00:59:55;100277.51;;;22.04;72.05
51147;BME280;37207;53.060;18.726;2022-08-19T01:02:24;100284.38;;;22.02;72.24
51147;BME280;37207;53.060;18.726;2022-08-19T01:04:51;100285.86;;;21.98;72.10
51147;BME280;37207;53.060;18.726;2022-08-19T01:07:19;100286.58;;;21.97;72.24
51147;BME280;37207;53.060;18.726;2022-08-19T01:09:46;100286.66;;;21.96;72.32
51147;BME280;37207;53.060;18.726;2022-08-19T01:12:14;100287.98;;;21.94;72.22
51147;BME280;37207;53.060;18.726;2022-08-19T01:14:41;100285.95;;;21.89;72.43
51147;BME280;37207;53.060;18.726;2022-08-19T01:17:11;100296.45;;;21.87;72.44
51147;BME280;37207;53.060;18.726;2022-08-19T01:19:42;100291.58;;;21.83;72.49
51147;BME280;37207;53.060;18.726;2022-08-19T01:22:44;100290.11;;;21.80;72.51
51147;BME280;37207;53.060;18.726;2022-08-19T01:25:14;100288.66;;;21.78;72.78
51147;BME280;37207;53.060;18.726;2022-08-19T01:27:46;100289.64;;;21.76;72.67
51147;BME280;37207;53.060;18.726;2022-08-19T01:30:22;100287.52;;;21.75;72.80
51147;BME280;37207;53.060;18.726;2022-08-19T01:32:51;100285.91;;;21.73;72.85
51147;BME280;37207;53.060;18.726;2022-08-19T01:35:21;100283.21;;;21.71;72.93
51147;BME280;37207;53.060;18.726;2022-08-19T01:37:53;100277.27;;;21.69;73.04
51147;BME280;37207;53.060;18.726;2022-08-19T01:40:25;100279.23;;;21.65;72.99
51147;BME280;37207;53.060;18.726;2022-08-19T01:42:53;100275.17;;;21.62;73.29
51147;BME280;37207;53.060;18.726;2022-08-19T01:45:22;100269.88;;;21.60;73.36
51147;BME280;37207;53.060;18.726;2022-08-19T01:47:49;100268.52;;;21.60;73.49
51147;BME280;37207;53.060;18.726;2022-08-19T01:50:20;100271.08;;;21.60;73.53
51147;BME280;37207;53.060;18.726;2022-08-19T01:52:47;100266.88;;;21.61;73.67
51147;BME280;37207;53.060;18.726;2022-08-19T01:55:20;100260.16;;;21.61;73.72
51147;BME280;37207;53.060;18.726;2022-08-19T01:57:51;100260.28;;;21.61;73.76
51147;BME280;37207;53.060;18.726;2022-08-19T02:00:22;100258.41;;;21.60;73.78
51147;BME280;37207;53.060;18.726;2022-08-19T02:02:50;100258.83;;;21.59;73.73
51147;BME280;37207;53.060;18.726;2022-08-19T02:05:18;100250.17;;;21.58;73.80
51147;BME280;37207;53.060;18.726;2022-08-19T02:07:49;100246.59;;;21.57;73.94
51147;BME280;37207;53.060;18.726;2022-08-19T02:10:20;100245.35;;;21.57;73.90
51147;BME280;37207;53.060;18.726;2022-08-19T02:12:48;100247.41;;;21.53;73.85
51147;BME280;37207;53.060;18.726;2022-08-19T02:15:19;100248.68;;;21.48;74.10
51147;BME280;37207;53.060;18.726;2022-08-19T02:17:46;100245.55;;;21.43;74.18
51147;BME280;37207;53.060;18.726;2022-08-19T02:20:17;100241.92;;;21.42;74.40
51147;BME280;37207;53.060;18.726;2022-08-19T02:22:44;100233.20;;;21.40;74.44
51147;BME280;37207;53.060;18.726;2022-08-19T02:25:13;100230.05;;;21.39;74.50
51147;BME280;37207;53.060;18.726;2022-08-19T02:27:41;100223.08;;;21.38;74.57
51147;BME280;37207;53.060;18.726;2022-08-19T02:30:15;100217.48;;;21.35;74.68
51147;BME280;37207;53.060;18.726;2022-08-19T02:32:43;100219.98;;;21.30;74.76
51147;BME280;37207;53.060;18.726;2022-08-19T02:35:14;100215.64;;;21.22;75.02
51147;BME280;37207;53.060;18.726;2022-08-19T02:37:45;100218.80;;;21.15;75.27
51147;BME280;37207;53.060;18.726;2022-08-19T02:40:31;100211.38;;;21.10;75.32
51147;BME280;37207;53.060;18.726;2022-08-19T02:43:03;100215.54;;;21.08;75.49
51147;BME280;37207;53.060;18.726;2022-08-19T02:45:35;100215.98;;;21.10;75.67
51147;BME280;37207;53.060;18.726;2022-08-19T02:48:03;100221.63;;;21.12;75.65
51147;BME280;37207;53.060;18.726;2022-08-19T02:50:31;100226.05;;;21.15;75.79
51147;BME280;37207;53.060;18.726;2022-08-19T02:52:59;100228.44;;;21.16;75.71
51147;BME280;37207;53.060;18.726;2022-08-19T02:55:26;100234.36;;;21.18;75.70
51147;BME280;37207;53.060;18.726;2022-08-19T02:57:53;100238.00;;;21.19;75.72
51147;BME280;37207;53.060;18.726;2022-08-19T03:00:21;100237.38;;;21.20;75.65
51147;BME280;37207;53.060;18.726;2022-08-19T03:02:53;100237.55;;;21.21;75.81
51147;BME280;37207;53.060;18.726;2022-08-19T03:05:20;100231.92;;;21.19;75.57
51147;BME280;37207;53.060;18.726;2022-08-19T03:07:47;100231.52;;;21.17;75.63
51147;BME280;37207;53.060;18.726;2022-08-19T03:10:15;100231.77;;;21.16;75.78
51147;BME280;37207;53.060;18.726;2022-08-19T03:12:42;100231.70;;;21.13;75.75
51147;BME280;37207;53.060;18.726;2022-08-19T03:15:09;100233.02;;;21.09;75.97
51147;BME280;37207;53.060;18.726;2022-08-19T03:17:36;100229.17;;;21.07;75.92
51147;BME280;37207;53.060;18.726;2022-08-19T03:20:04;100232.02;;;21.07;76.01
51147;BME280;37207;53.060;18.726;2022-08-19T03:22:31;100233.89;;;21.08;76.28
51147;BME280;37207;53.060;18.726;2022-08-19T03:24:59;100231.71;;;21.07;76.27
51147;BME280;37207;53.060;18.726;2022-08-19T03:27:26;100229.63;;;21.06;76.29
51147;BME280;37207;53.060;18.726;2022-08-19T03:29:54;100231.98;;;21.04;76.34
51147;BME280;37207;53.060;18.726;2022-08-19T03:32:21;100233.67;;;21.03;76.51
51147;BME280;37207;53.060;18.726;2022-08-19T03:34:48;100237.23;;;21.02;76.60
51147;BME280;37207;53.060;18.726;2022-08-19T03:37:17;100233.23;;;20.99;76.57
51147;BME280;37207;53.060;18.726;2022-08-19T03:39:44;100230.16;;;20.99;76.69
51147;BME280;37207;53.060;18.726;2022-08-19T03:42:12;100232.37;;;21.02;76.89
51147;BME280;37207;53.060;18.726;2022-08-19T03:44:39;100233.30;;;21.04;76.83
51147;BME280;37207;53.060;18.726;2022-08-19T03:47:07;100233.73;;;21.08;76.92
51147;BME280;37207;53.060;18.726;2022-08-19T03:49:34;100235.46;;;21.08;76.80
51147;BME280;37207;53.060;18.726;2022-08-19T03:52:03;100232.09;;;21.07;76.87
51147;BME280;37207;53.060;18.726;2022-08-19T03:54:34;100230.94;;;21.06;76.89
51147;BME280;37207;53.060;18.726;2022-08-19T03:57:02;100229.92;;;21.06;76.82
51147;BME280;37207;53.060;18.726;2022-08-19T03:59:33;100228.39;;;21.07;76.87
51147;BME280;37207;53.060;18.726;2022-08-19T04:02:03;100225.65;;;21.08;77.04
51147;BME280;37207;53.060;18.726;2022-08-19T04:04:39;100225.92;;;21.07;77.04
51147;BME280;37207;53.060;18.726;2022-08-19T04:07:26;100224.60;;;21.06;77.11
51147;BME280;37207;53.060;18.726;2022-08-19T04:09:57;100218.61;;;21.07;77.27
51147;BME280;37207;53.060;18.726;2022-08-19T04:12:27;100217.26;;;21.09;77.24
51147;BME280;37207;53.060;18.726;2022-08-19T04:14:58;100212.98;;;21.11;77.25
51147;BME280;37207;53.060;18.726;2022-08-19T04:17:30;100209.31;;;21.14;77.39
51147;BME280;37207;53.060;18.726;2022-08-19T04:20:04;100214.48;;;21.20;77.37
51147;BME280;37207;53.060;18.726;2022-08-19T04:22:34;100220.31;;;21.28;77.33
51147;BME280;37207;53.060;18.726;2022-08-19T04:25:01;100219.15;;;21.31;77.20
51147;BME280;37207;53.060;18.726;2022-08-19T04:27:28;100211.95;;;21.30;77.33
51147;BME280;37207;53.060;18.726;2022-08-19T04:29:55;100211.53;;;21.33;77.21
51147;BME280;37207;53.060;18.726;2022-08-19T04:32:23;100216.98;;;21.35;77.19
51147;BME280;37207;53.060;18.726;2022-08-19T04:34:51;100218.73;;;21.38;77.39
51147;BME280;37207;53.060;18.726;2022-08-19T04:37:18;100215.66;;;21.42;77.16
51147;BME280;37207;53.060;18.726;2022-08-19T04:39:46;100211.84;;;21.46;77.23
51147;BME280;37207;53.060;18.726;2022-08-19T04:42:33;100209.16;;;21.53;77.35
51147;BME280;37207;53.060;18.726;2022-08-19T04:45:10;100212.98;;;21.61;77.19
51147;BME280;37207;53.060;18.726;2022-08-19T04:47:40;100212.85;;;21.68;77.08
51147;BME280;37207;53.060;18.726;2022-08-19T04:50:09;100208.09;;;21.73;76.96
51147;BME280;37207;53.060;18.726;2022-08-19T04:52:40;100213.23;;;21.77;76.82
51147;BME280;37207;53.060;18.726;2022-08-19T04:55:10;100221.52;;;21.82;76.82
51147;BME280;37207;53.060;18.726;2022-08-19T04:57:39;100223.02;;;21.88;76.81
51147;BME280;37207;53.060;18.726;2022-08-19T05:00:11;100228.40;;;21.96;76.77
51147;BME280;37207;53.060;18.726;2022-08-19T05:02:38;100232.52;;;22.03;76.88
51147;BME280;37207;53.060;18.726;2022-08-19T05:05:08;100234.79;;;22.11;76.73
51147;BME280;37207;53.060;18.726;2022-08-19T05:07:36;100243.63;;;22.19;76.31
51147;BME280;37207;53.060;18.726;2022-08-19T05:10:06;100247.84;;;22.28;76.24
51147;BME280;37207;53.060;18.726;2022-08-19T05:12:33;100250.66;;;22.34;76.09
51147;BME280;37207;53.060;18.726;2022-08-19T05:15:02;100247.67;;;22.41;76.07
51147;BME280;37207;53.060;18.726;2022-08-19T05:17:29;100235.17;;;22.46;75.92
51147;BME280;37207;53.060;18.726;2022-08-19T05:19:57;100234.15;;;22.50;75.85
51147;BME280;37207;53.060;18.726;2022-08-19T05:22:44;100235.58;;;22.56;75.82
51147;BME280;37207;53.060;18.726;2022-08-19T05:25:15;100235.81;;;22.61;75.57
51147;BME280;37207;53.060;18.726;2022-08-19T05:27:45;100240.20;;;22.66;75.36
51147;BME280;37207;53.060;18.726;2022-08-19T05:30:13;100246.11;;;22.73;75.38
51147;BME280;37207;53.060;18.726;2022-08-19T05:32:41;100252.74;;;22.83;75.17
51147;BME280;37207;53.060;18.726;2022-08-19T05:35:08;100248.59;;;22.95;75.06
51147;BME280;37207;53.060;18.726;2022-08-19T05:37:36;100238.64;;;23.04;74.81
51147;BME280;37207;53.060;18.726;2022-08-19T05:40:08;100230.04;;;23.11;74.85
51147;BME280;37207;53.060;18.726;2022-08-19T05:42:37;100225.79;;;23.17;74.61
51147;BME280;37207;53.060;18.726;2022-08-19T05:45:06;100225.90;;;23.22;74.39
51147;BME280;37207;53.060;18.726;2022-08-19T05:47:34;100223.28;;;23.27;74.21
51147;BME280;37207;53.060;18.726;2022-08-19T05:50:02;100224.66;;;23.29;74.21
51147;BME280;37207;53.060;18.726;2022-08-19T05:52:31;100228.73;;;23.30;73.92
51147;BME280;37207;53.060;18.726;2022-08-19T05:54:58;100230.33;;;23.32;74.00
51147;BME280;37207;53.060;18.726;2022-08-19T05:57:25;100231.77;;;23.36;73.70
51147;BME280;37207;53.060;18.726;2022-08-19T05:59:55;100243.70;;;23.45;73.91
51147;BME280;37207;53.060;18.726;2022-08-19T06:02:23;100253.20;;;23.56;74.03
51147;BME280;37207;53.060;18.726;2022-08-19T06:04:51;100259.17;;;23.67;73.85
51147;BME280;37207;53.060;18.726;2022-08-19T06:07:18;100262.17;;;23.77;73.59
51147;BME280;37207;53.060;18.726;2022-08-19T06:09:46;100259.88;;;23.85;73.11
51147;BME280;37207;53.060;18.726;2022-08-19T06:12:13;100256.31;;;23.94;72.95
51147;BME280;37207;53.060;18.726;2022-08-19T06:14:40;100247.84;;;24.03;72.92
51147;BME280;37207;53.060;18.726;2022-08-19T06:17:08;100245.00;;;24.12;72.66
51147;BME280;37207;53.060;18.726;2022-08-19T06:19:36;100246.22;;;24.20;72.44
51147;BME280;37207;53.060;18.726;2022-08-19T06:22:05;100249.79;;;24.28;72.17
51147;BME280;37207;53.060;18.726;2022-08-19T06:24:36;100250.96;;;24.35;72.01
51147;BME280;37207;53.060;18.726;2022-08-19T06:27:04;100252.77;;;24.42;71.92
51147;BME280;37207;53.060;18.726;2022-08-19T06:29:34;100255.90;;;24.51;71.89
51147;BME280;37207;53.060;18.726;2022-08-19T06:32:02;100254.24;;;24.63;71.96
51147;BME280;37207;53.060;18.726;2022-08-19T06:34:32;100255.48;;;24.76;71.68
51147;BME280;37207;53.060;18.726;2022-08-19T06:37:01;100256.09;;;24.90;71.61
51147;BME280;37207;53.060;18.726;2022-08-19T06:39:32;100258.65;;;25.04;71.34
51147;BME280;37207;53.060;18.726;2022-08-19T06:42:02;100255.06;;;25.19;70.97
51147;BME280;37207;53.060;18.726;2022-08-19T06:44:36;100258.40;;;25.34;70.19
51147;BME280;37207;53.060;18.726;2022-08-19T06:47:07;100260.98;;;25.46;69.61
51147;BME280;37207;53.060;18.726;2022-08-19T06:49:35;100254.41;;;25.59;69.20
51147;BME280;37207;53.060;18.726;2022-08-19T06:52:05;100248.32;;;25.73;69.02
51147;BME280;37207;53.060;18.726;2022-08-19T06:54:33;100247.40;;;25.86;68.16
51147;BME280;37207;53.060;18.726;2022-08-19T06:57:00;100251.52;;;25.98;67.79
51147;BME280;37207;53.060;18.726;2022-08-19T06:59:31;100252.61;;;26.13;67.64
51147;BME280;37207;53.060;18.726;2022-08-19T07:02:03;100246.81;;;26.29;67.46
51147;BME280;37207;53.060;18.726;2022-08-19T07:04:35;100239.70;;;26.47;67.38
51147;BME280;37207;53.060;18.726;2022-08-19T07:07:06;100240.27;;;26.67;67.01
51147;BME280;37207;53.060;18.726;2022-08-19T07:09:37;100239.19;;;26.85;66.05
51147;BME280;37207;53.060;18.726;2022-08-19T07:12:06;100232.73;;;27.03;65.38
51147;BME280;37207;53.060;18.726;2022-08-19T07:14:34;100233.45;;;27.21;65.22
51147;BME280;37207;53.060;18.726;2022-08-19T07:17:07;100231.27;;;27.36;64.88
51147;BME280;37207;53.060;18.726;2022-08-19T07:19:35;100225.75;;;27.50;64.27
51147;BME280;37207;53.060;18.726;2022-08-19T07:22:05;100225.64;;;27.61;63.70
51147;BME280;37207;53.060;18.726;2022-08-19T07:24:33;100226.27;;;27.76;63.62
51147;BME280;37207;53.060;18.726;2022-08-19T07:27:03;100231.09;;;27.90;62.92
51147;BME280;37207;53.060;18.726;2022-08-19T07:29:32;100226.42;;;28.00;62.81
51147;BME280;37207;53.060;18.726;2022-08-19T07:32:01;100233.52;;;28.14;62.28
51147;BME280;37207;53.060;18.726;2022-08-19T07:34:30;100233.14;;;28.26;61.96
51147;BME280;37207;53.060;18.726;2022-08-19T07:36:57;100231.35;;;28.39;61.60
51147;BME280;37207;53.060;18.726;2022-08-19T07:39:30;100232.82;;;28.57;61.89
51147;BME280;37207;53.060;18.726;2022-08-19T07:41:59;100237.01;;;28.76;61.15
51147;BME280;37207;53.060;18.726;2022-08-19T07:44:27;100239.86;;;28.90;60.47
51147;BME280;37207;53.060;18.726;2022-08-19T07:46:56;100237.79;;;29.04;59.80
51147;BME280;37207;53.060;18.726;2022-08-19T07:49:23;100239.94;;;29.15;59.39
51147;BME280;37207;53.060;18.726;2022-08-19T07:51:57;100240.19;;;29.24;59.07
51147;BME280;37207;53.060;18.726;2022-08-19T07:54:39;100231.05;;;29.34;58.12
51147;BME280;37207;53.060;18.726;2022-08-19T07:57:08;100223.86;;;29.45;58.09
51147;BME280;37207;53.060;18.726;2022-08-19T07:59:39;100224.23;;;29.57;57.99
51147;BME280;37207;53.060;18.726;2022-08-19T08:02:21;100231.00;;;29.67;57.56
51147;BME280;37207;53.060;18.726;2022-08-19T08:04:49;100237.03;;;29.75;57.26
51147;BME280;37207;53.060;18.726;2022-08-19T08:07:35;100234.97;;;29.88;56.93
51147;BME280;37207;53.060;18.726;2022-08-19T08:10:24;100239.95;;;29.96;56.25
51147;BME280;37207;53.060;18.726;2022-08-19T08:12:54;100239.41;;;30.07;56.24
51147;BME280;37207;53.060;18.726;2022-08-19T08:15:23;100237.61;;;30.19;56.27
51147;BME280;37207;53.060;18.726;2022-08-19T08:17:50;100242.07;;;30.34;55.49
51147;BME280;37207;53.060;18.726;2022-08-19T08:20:18;100244.39;;;30.43;55.19
51147;BME280;37207;53.060;18.726;2022-08-19T08:22:46;100238.75;;;30.56;54.74
51147;BME280;37207;53.060;18.726;2022-08-19T08:25:33;100233.91;;;30.63;54.05
51147;BME280;37207;53.060;18.726;2022-08-19T08:28:03;100229.65;;;30.70;53.77
51147;BME280;37207;53.060;18.726;2022-08-19T08:30:31;100224.38;;;30.82;53.52
51147;BME280;37207;53.060;18.726;2022-08-19T08:33:00;100219.48;;;30.93;52.74
51147;BME280;37207;53.060;18.726;2022-08-19T08:35:27;100221.98;;;31.03;52.94
51147;BME280;37207;53.060;18.726;2022-08-19T08:37:55;100214.62;;;31.19;52.72
51147;BME280;37207;53.060;18.726;2022-08-19T08:40:30;100221.34;;;31.28;51.68
51147;BME280;37207;53.060;18.726;2022-08-19T08:46:01;100218.03;;;31.43;50.35
51147;BME280;37207;53.060;18.726;2022-08-19T08:51:18;100217.02;;;31.59;50.21
51147;BME280;37207;53.060;18.726;2022-08-19T08:53:50;100222.09;;;31.75;50.27
51147;BME280;37207;53.060;18.726;2022-08-19T08:56:20;100218.69;;;31.85;49.39
51147;BME280;37207;53.060;18.726;2022-08-19T08:58:59;100217.95;;;31.95;49.42
51147;BME280;37207;53.060;18.726;2022-08-19T09:01:28;100219.09;;;32.04;48.53
51147;BME280;37207;53.060;18.726;2022-08-19T09:03:56;100214.19;;;32.13;48.64
51147;BME280;37207;53.060;18.726;2022-08-19T09:06:32;100215.09;;;32.27;48.89
51147;BME280;37207;53.060;18.726;2022-08-19T09:09:04;100221.00;;;32.45;48.74
51147;BME280;37207;53.060;18.726;2022-08-19T09:16:45;100216.95;;;32.92;46.97
51147;BME280;37207;53.060;18.726;2022-08-19T09:19:12;100205.05;;;33.06;47.23
51147;BME280;37207;53.060;18.726;2022-08-19T09:21:39;100205.65;;;33.18;46.53
51147;BME280;37207;53.060;18.726;2022-08-19T09:24:06;100202.86;;;33.27;46.16
51147;BME280;37207;53.060;18.726;2022-08-19T09:26:34;100205.61;;;33.39;46.23
51147;BME280;37207;53.060;18.726;2022-08-19T09:29:04;100201.22;;;33.56;46.14
51147;BME280;37207;53.060;18.726;2022-08-19T09:31:32;100199.91;;;33.66;45.50
51147;BME280;37207;53.060;18.726;2022-08-19T09:33:59;100195.02;;;33.77;45.28
51147;BME280;37207;53.060;18.726;2022-08-19T09:36:27;100190.45;;;33.90;44.95
51147;BME280;37207;53.060;18.726;2022-08-19T09:39:00;100186.34;;;34.03;44.61
51147;BME280;37207;53.060;18.726;2022-08-19T09:41:27;100186.41;;;34.17;44.27
51147;BME280;37207;53.060;18.726;2022-08-19T09:43:56;100186.02;;;34.35;44.22
51147;BME280;37207;53.060;18.726;2022-08-19T09:46:26;100184.80;;;34.50;43.50
51147;BME280;37207;53.060;18.726;2022-08-19T09:48:54;100183.95;;;34.59;42.72
51147;BME280;37207;53.060;18.726;2022-08-19T09:51:26;100187.77;;;34.62;41.90
51147;BME280;37207;53.060;18.726;2022-08-19T09:54:00;100183.81;;;34.64;42.22
51147;BME280;37207;53.060;18.726;2022-08-19T09:56:28;100184.90;;;34.67;41.82
51147;BME280;37207;53.060;18.726;2022-08-19T09:59:01;100182.93;;;34.72;41.78
51147;BME280;37207;53.060;18.726;2022-08-19T10:01:31;100178.91;;;34.76;41.71
51147;BME280;37207;53.060;18.726;2022-08-19T10:04:00;100178.76;;;34.79;41.10
51147;BME280;37207;53.060;18.726;2022-08-19T10:06:30;100177.80;;;34.86;41.37
51147;BME280;37207;53.060;18.726;2022-08-19T10:09:00;100179.02;;;34.97;41.11
51147;BME280;37207;53.060;18.726;2022-08-19T10:11:27;100174.69;;;35.15;40.92
51147;BME280;37207;53.060;18.726;2022-08-19T10:13:55;100172.79;;;35.33;40.59
51147;BME280;37207;53.060;18.726;2022-08-19T10:16:23;100165.99;;;35.31;40.01
51147;BME280;37207;53.060;18.726;2022-08-19T10:18:50;100169.27;;;35.22;40.38
51147;BME280;37207;53.060;18.726;2022-08-19T10:21:24;100172.98;;;35.30;39.99
51147;BME280;37207;53.060;18.726;2022-08-19T10:23:53;100176.16;;;35.50;40.37
51147;BME280;37207;53.060;18.726;2022-08-19T10:26:29;100172.17;;;35.82;40.29
51147;BME280;37207;53.060;18.726;2022-08-19T10:28:57;100168.60;;;36.20;39.95
51147;BME280;37207;53.060;18.726;2022-08-19T10:31:28;100165.92;;;36.62;39.19
51147;BME280;37207;53.060;18.726;2022-08-19T10:33:56;100162.66;;;37.21;38.47
51147;BME280;37207;53.060;18.726;2022-08-19T10:36:33;100163.05;;;37.90;37.39
51147;BME280;37207;53.060;18.726;2022-08-19T10:39:07;100155.09;;;38.28;37.30
51147;BME280;37207;53.060;18.726;2022-08-19T10:41:37;100149.96;;;38.50;35.47
51147;BME280;37207;53.060;18.726;2022-08-19T10:44:08;100149.73;;;38.81;35.60
51147;BME280;37207;53.060;18.726;2022-08-19T10:46:40;100155.79;;;38.61;35.43
51147;BME280;37207;53.060;18.726;2022-08-19T10:49:12;100159.96;;;38.59;35.29
51147;BME280;37207;53.060;18.726;2022-08-19T10:51:40;100161.66;;;38.58;34.93
51147;BME280;37207;53.060;18.726;2022-08-19T10:54:27;100161.70;;;38.80;34.48
51147;BME280;37207;53.060;18.726;2022-08-19T10:57:16;100154.15;;;39.07;35.01
51147;BME280;37207;53.060;18.726;2022-08-19T10:59:44;100153.41;;;39.17;34.87
51147;BME280;37207;53.060;18.726;2022-08-19T11:02:11;100146.34;;;39.06;34.62
51147;BME280;37207;53.060;18.726;2022-08-19T11:04:40;100141.21;;;38.91;34.69
51147;BME280;37207;53.060;18.726;2022-08-19T11:07:08;100139.17;;;38.89;34.95
51147;BME280;37207;53.060;18.726;2022-08-19T11:09:39;100132.27;;;38.91;34.68
51147;BME280;37207;53.060;18.726;2022-08-19T11:12:08;100126.60;;;38.78;34.11
51147;BME280;37207;53.060;18.726;2022-08-19T11:14:36;100121.23;;;38.76;34.71
51147;BME280;37207;53.060;18.726;2022-08-19T11:17:05;100129.59;;;38.65;34.98
51147;BME280;37207;53.060;18.726;2022-08-19T11:19:32;100129.38;;;38.43;34.21
51147;BME280;37207;53.060;18.726;2022-08-19T11:22:00;100131.88;;;38.29;35.38
51147;BME280;37207;53.060;18.726;2022-08-19T11:24:31;100133.30;;;38.28;34.88
51147;BME280;37207;53.060;18.726;2022-08-19T11:27:07;100129.67;;;38.25;35.14
51147;BME280;37207;53.060;18.726;2022-08-19T11:29:38;100125.73;;;38.22;35.45
51147;BME280;37207;53.060;18.726;2022-08-19T11:32:08;100119.15;;;38.25;35.40
51147;BME280;37207;53.060;18.726;2022-08-19T11:34:36;100119.30;;;38.26;35.47
51147;BME280;37207;53.060;18.726;2022-08-19T11:37:04;100120.19;;;38.19;35.02
51147;BME280;37207;53.060;18.726;2022-08-19T11:39:34;100111.27;;;38.05;35.77
51147;BME280;37207;53.060;18.726;2022-08-19T11:42:03;100110.08;;;38.02;35.40
51147;BME280;37207;53.060;18.726;2022-08-19T11:44:54;100103.42;;;38.01;36.14
51147;BME280;37207;53.060;18.726;2022-08-19T11:47:21;100096.94;;;38.01;35.27
51147;BME280;37207;53.060;18.726;2022-08-19T11:49:48;100084.18;;;37.87;35.58
51147;BME280;37207;53.060;18.726;2022-08-19T11:52:15;100080.91;;;37.74;35.69
51147;BME280;37207;53.060;18.726;2022-08-19T11:54:42;100078.83;;;37.70;36.01
51147;BME280;37207;53.060;18.726;2022-08-19T11:57:09;100078.13;;;37.80;35.97
51147;BME280;37207;53.060;18.726;2022-08-19T11:59:36;100077.45;;;37.90;35.82
51147;BME280;37207;53.060;18.726;2022-08-19T12:02:03;100086.70;;;37.92;35.82
51147;BME280;37207;53.060;18.726;2022-08-19T12:04:30;100085.80;;;37.99;35.95
51147;BME280;37207;53.060;18.726;2022-08-19T12:06:58;100082.13;;;38.10;35.74
51147;BME280;37207;53.060;18.726;2022-08-19T12:09:25;100086.34;;;37.96;35.54
51147;BME280;37207;53.060;18.726;2022-08-19T12:11:52;100079.27;;;37.71;35.95
51147;BME280;37207;53.060;18.726;2022-08-19T12:14:19;100079.41;;;37.56;36.49
51147;BME280;37207;53.060;18.726;2022-08-19T12:16:46;100082.14;;;37.55;36.64
51147;BME280;37207;53.060;18.726;2022-08-19T12:19:14;100079.22;;;37.47;36.30
51147;BME280;37207;53.060;18.726;2022-08-19T12:21:42;100080.16;;;37.35;36.17
51147;BME280;37207;53.060;18.726;2022-08-19T12:24:09;100076.65;;;37.25;36.08
51147;BME280;37207;53.060;18.726;2022-08-19T12:26:36;100078.20;;;37.23;36.75
51147;BME280;37207;53.060;18.726;2022-08-19T12:29:03;100075.75;;;37.23;36.64
51147;BME280;37207;53.060;18.726;2022-08-19T12:31:31;100078.31;;;37.16;37.09
51147;BME280;37207;53.060;18.726;2022-08-19T12:34:01;100080.70;;;37.26;36.98
51147;BME280;37207;53.060;18.726;2022-08-19T12:36:29;100077.27;;;37.50;37.23
51147;BME280;37207;53.060;18.726;2022-08-19T12:38:58;100077.95;;;37.86;36.53
51147;BME280;37207;53.060;18.726;2022-08-19T12:41:26;100078.91;;;38.09;35.95
51147;BME280;37207;53.060;18.726;2022-08-19T12:43:53;100074.68;;;38.32;35.93
51147;BME280;37207;53.060;18.726;2022-08-19T12:46:20;100076.17;;;38.46;35.07
51147;BME280;37207;53.060;18.726;2022-08-19T12:48:49;100078.18;;;38.63;35.26
51147;BME280;37207;53.060;18.726;2022-08-19T12:51:18;100079.90;;;38.84;34.76
51147;BME280;37207;53.060;18.726;2022-08-19T12:53:48;100084.52;;;39.03;34.28
51147;BME280;37207;53.060;18.726;2022-08-19T12:56:16;100081.76;;;39.27;33.23
51147;BME280;37207;53.060;18.726;2022-08-19T12:58:44;100083.91;;;39.40;32.24
51147;BME280;37207;53.060;18.726;2022-08-19T13:01:13;100084.59;;;39.45;32.46
51147;BME280;37207;53.060;18.726;2022-08-19T13:03:42;100081.31;;;39.51;32.70
51147;BME280;37207;53.060;18.726;2022-08-19T13:06:09;100078.08;;;39.59;32.65